Teigen, MT

10:52 PM MDT on August 29, 2014 (GMT -0600)
Lewistown Municipal | Change Station
CLOSE
Current Station
Airport
Location: Lewistown,
Elevation: 4167 ft
Nearby Weather Stations

Elev 4167 ft 47.05 °N, 109.47 °W | Updated 58 minutes ago

Clear
Clear
64 °F
Feels Like 64 °F
N
8
Wind Variable Wind from East

Today
High -- | Low -- °F
--% Chance of Precip.
Yesterday
High -- | Low -- °F
Precip. -- in
6:29 AM 7:59 PM
Waxing Crescent, 19% visible
Pressure 29.81 in
Visibility 10.0 miles
Clouds Clear
Dew Point 51 °F
Humidity 63%
Rainfall 0.00 in
Snow Depth Not available.
UV 0 out of 12
Pollen 6.90 out of 12
Air Quality Not available.
Flu Activity Not available.
METAR KLWT 300354Z AUTO 08007KT 10SM CLR 18/11 A2989 RMK AO2 SLP094 T01780106

More Conditions Fewer Conditions

Pressure 29.81 in
Visibility 10.0 miles
Clouds Clear
Dew Point 51 °F
Humidity 63%
Rainfall 0.00 in
Snow Depth Not available.
UV 0 out of 12
Pollen 6.90 out of 12
Air Quality Not available.
Flu Activity Not available.
METAR KLWT 300354Z AUTO 08007KT 10SM CLR 18/11 A2989 RMK AO2 SLP094 T01780106

More Conditions Fewer Conditions

10-Day Weather Forecast

Almanac

Astronomy

Aug. 29, 2014 Rise Set
Actual Time 6:29 AM MDT 7:59 PM MDT
Civil Twilight 5:58 AM MDT 8:31 PM MDT
Nautical Twilight 5:19 AM MDT 9:09 PM MDT
Astronomical Twilight 4:37 AM MDT 9:51 PM MDT
Moon 10:40 AM MDT (8/29) 9:40 PM MDT (8/29)
Length of Visible Light 14h 33m
Length of Day
13h 29m
Tomorrow will be 3m 13s shorter.
Waxing Crescent, 19% of the Moon is Illuminated
Aug 30
Waxing Crescent
Sep 2
First Quarter
Sep 8
Full
Sep 15
Last Quarter
Sep 24
New

Yesterday's Extremes

State Highs State Lows

Community

WunderPhotos

Upload Photos

1,748,454 photos uploaded!

Nearby

Snow Depth

Station Depth Elevation
Crystal Lake 0 in 6050 ft
Spur Park 0 in 8100 ft
Onion Park 0 in 7410 ft
Stringer Creek 0 in 6550 ft
Porcupine 1 in 6500 ft

Earthquake Activity

City Distance Mag. Time & Date
No recent earthquake activity has been reported nearby.
Minimum magnitude displayed is 2.5.

Coastal Water Temperatures

Place Temperature
No Stations Reporting

Nearby Weather Stations